createdAt,value
2022-11-26T00:00:51.878Z,6.07
2022-11-26T00:03:23.881Z,6.27
2022-11-26T00:05:57.312Z,4.80
2022-11-26T00:08:35.157Z,7.10
2022-11-26T00:11:11.409Z,5.93
2022-11-26T00:13:43.192Z,7.27
2022-11-26T00:16:15.707Z,7.10
2022-11-26T00:18:47.561Z,6.13
2022-11-26T00:21:25.729Z,7.17
2022-11-26T00:23:57.552Z,6.23
2022-11-26T00:26:29.489Z,6.77
2022-11-26T00:29:01.258Z,6.80
2022-11-26T00:31:33.075Z,5.50
2022-11-26T00:34:04.962Z,6.27
2022-11-26T00:36:36.786Z,6.00
2022-11-26T00:39:22.545Z,6.40
2022-11-26T00:41:54.372Z,4.77
2022-11-26T00:44:26.418Z,5.80
2022-11-26T00:46:58.165Z,5.43
2022-11-26T00:49:29.954Z,5.90
2022-11-26T00:52:01.918Z,5.50
2022-11-26T00:54:33.826Z,5.97
2022-11-26T00:57:05.544Z,5.87
2022-11-26T00:59:37.213Z,4.40
2022-11-26T01:02:10.530Z,4.80
2022-11-26T01:04:42.292Z,6.33
2022-11-26T01:07:14.071Z,4.70
2022-11-26T01:09:47.360Z,4.37
2022-11-26T01:12:19.034Z,4.87
2022-11-26T01:14:50.748Z,4.53
2022-11-26T01:17:22.541Z,4.13
2022-11-26T01:19:54.345Z,4.20
2022-11-26T01:22:26.030Z,4.70
2022-11-26T01:24:57.849Z,4.70
2022-11-26T01:27:29.549Z,4.33
2022-11-26T01:30:01.486Z,5.20
2022-11-26T01:32:33.280Z,5.57
2022-11-26T01:35:05.498Z,5.37
2022-11-26T01:37:37.339Z,5.83
2022-11-26T01:40:26.567Z,4.10
2022-11-26T01:43:24.435Z,4.20
2022-11-26T01:45:57.002Z,4.37
2022-11-26T01:48:30.467Z,4.77
2022-11-26T01:51:06.742Z,5.30
2022-11-26T01:54:00.684Z,4.47
2022-11-26T01:56:37.322Z,4.30
2022-11-26T01:59:15.814Z,5.87
2022-11-26T02:01:50.022Z,4.80
2022-11-26T02:04:28.404Z,4.50
2022-11-26T02:07:00.192Z,5.30
2022-11-26T02:09:32.550Z,3.93
2022-11-26T02:12:04.472Z,4.43
2022-11-26T02:14:40.844Z,5.70
2022-11-26T02:17:43.627Z,5.33
2022-11-26T02:20:33.972Z,5.27
2022-11-26T02:23:23.945Z,5.17
2022-11-26T02:26:14.389Z,5.63
2022-11-26T02:29:07.917Z,8.47
2022-11-26T02:31:39.993Z,5.80
2022-11-26T02:34:37.424Z,7.77
2022-11-26T02:37:42.658Z,4.57
2022-11-26T02:40:15.131Z,6.37
2022-11-26T02:42:46.830Z,5.70
2022-11-26T02:45:23.514Z,6.00
2022-11-26T02:47:59.069Z,6.10
2022-11-26T02:50:42.921Z,5.87
2022-11-26T02:53:17.549Z,5.80
2022-11-26T02:55:53.844Z,4.97
2022-11-26T02:58:25.636Z,5.73
2022-11-26T03:00:59.218Z,5.10
2022-11-26T03:03:40.437Z,5.40
2022-11-26T03:06:14.416Z,5.37
2022-11-26T03:08:46.240Z,5.80
2022-11-26T03:11:18.069Z,5.40
2022-11-26T03:13:49.897Z,5.90
2022-11-26T03:16:21.838Z,4.97
2022-11-26T03:18:53.642Z,6.67
2022-11-26T03:21:25.635Z,4.83
2022-11-26T03:23:57.320Z,5.53
2022-11-26T03:26:29.082Z,5.03
2022-11-26T03:29:00.749Z,5.40
2022-11-26T03:31:32.505Z,5.97
2022-11-26T03:34:04.188Z,6.33
2022-11-26T03:36:36.003Z,5.47
2022-11-26T03:39:07.874Z,5.88
2022-11-26T03:41:39.653Z,5.60
2022-11-26T03:44:12.734Z,5.63
2022-11-26T03:46:44.523Z,5.33
2022-11-26T03:49:16.454Z,5.93
2022-11-26T03:51:48.157Z,6.43
2022-11-26T03:54:19.883Z,6.00
2022-11-26T03:56:51.678Z,6.30
2022-11-26T03:59:24.342Z,5.80
2022-11-26T04:01:56.360Z,5.90
2022-11-26T04:04:28.209Z,5.77
2022-11-26T04:06:59.962Z,6.07
2022-11-26T04:09:31.769Z,6.37
2022-11-26T04:12:03.634Z,5.90
2022-11-26T04:14:35.475Z,6.07
2022-11-26T04:17:07.284Z,5.97
2022-11-26T04:19:38.973Z,6.07
2022-11-26T04:22:10.781Z,7.00
2022-11-26T04:24:42.582Z,7.13
2022-11-26T04:27:14.467Z,5.43
2022-11-26T04:29:46.190Z,4.70
2022-11-26T04:32:18.197Z,5.07
2022-11-26T04:34:49.962Z,6.00
2022-11-26T04:37:21.658Z,5.43
2022-11-26T04:39:53.379Z,5.40
2022-11-26T04:42:25.112Z,6.10
2022-11-26T04:44:56.821Z,6.57
2022-11-26T04:47:28.562Z,7.40
2022-11-26T04:50:00.565Z,5.70
2022-11-26T04:52:32.415Z,5.20
2022-11-26T04:55:04.746Z,5.70
2022-11-26T04:57:36.498Z,5.17
2022-11-26T05:00:09.269Z,5.70
2022-11-26T05:02:41.126Z,6.03
2022-11-26T05:05:13.325Z,5.43
2022-11-26T05:07:45.225Z,6.10
2022-11-26T05:10:17.171Z,5.93
2022-11-26T05:12:49.969Z,6.60
2022-11-26T05:15:21.705Z,5.50
2022-11-26T05:17:53.551Z,5.20
2022-11-26T05:20:25.418Z,5.10
2022-11-26T05:22:57.212Z,6.40
2022-11-26T05:25:29.029Z,6.82
2022-11-26T05:28:00.805Z,6.10
2022-11-26T05:30:33.019Z,7.17
2022-11-26T05:33:04.761Z,5.87
2022-11-26T05:35:37.919Z,5.80
2022-11-26T05:38:09.582Z,6.73
2022-11-26T05:40:41.324Z,6.33
2022-11-26T05:43:13.140Z,6.87
2022-11-26T05:45:44.895Z,6.90
2022-11-26T05:48:16.825Z,6.80
2022-11-26T05:50:53.185Z,7.03
2022-11-26T05:53:26.667Z,6.23
2022-11-26T05:55:58.770Z,6.67
2022-11-26T05:58:30.488Z,6.20
2022-11-26T06:01:08.491Z,6.60
2022-11-26T06:03:40.488Z,6.80
2022-11-26T06:06:12.282Z,6.13
2022-11-26T06:08:44.090Z,5.70
2022-11-26T06:11:15.932Z,6.27
2022-11-26T06:13:47.840Z,6.87
2022-11-26T06:16:19.835Z,5.63
2022-11-26T06:18:51.709Z,5.67
2022-11-26T06:21:23.455Z,5.83
2022-11-26T06:23:59.329Z,8.70
2022-11-26T06:26:31.601Z,7.70
2022-11-26T06:29:04.031Z,7.97
2022-11-26T06:31:36.957Z,8.60
2022-11-26T06:34:09.032Z,7.43
2022-11-26T06:36:40.738Z,6.90
2022-11-26T06:39:12.625Z,7.43
2022-11-26T06:41:44.334Z,6.60
2022-11-26T06:44:16.193Z,8.13
2022-11-26T06:46:47.997Z,7.20
2022-11-26T06:49:19.744Z,6.83
2022-11-26T06:51:51.402Z,6.77
2022-11-26T06:54:23.072Z,6.90
2022-11-26T06:56:54.741Z,6.50
2022-11-26T06:59:26.588Z,6.83
2022-11-26T07:01:58.506Z,7.60
2022-11-26T07:04:30.347Z,7.17
2022-11-26T07:07:02.059Z,6.43
2022-11-26T07:09:33.864Z,6.63
2022-11-26T07:12:05.848Z,7.60
2022-11-26T07:14:37.944Z,6.93
2022-11-26T07:17:09.923Z,7.50
2022-11-26T07:19:41.665Z,6.70
2022-11-26T07:22:13.493Z,6.20
2022-11-26T07:24:45.153Z,6.53
2022-11-26T07:27:16.879Z,5.80
2022-11-26T07:29:48.630Z,7.37
2022-11-26T07:32:20.324Z,6.90
2022-11-26T07:34:52.038Z,7.20
2022-11-26T07:37:23.709Z,7.87
2022-11-26T07:39:55.416Z,7.17
2022-11-26T07:42:31.010Z,7.60
2022-11-26T07:45:03.798Z,7.80
2022-11-26T07:47:35.703Z,7.67
2022-11-26T07:50:08.803Z,8.30
2022-11-26T07:52:40.556Z,7.37
2022-11-26T07:55:12.766Z,7.70
2022-11-26T07:57:44.644Z,11.30
2022-11-26T08:00:17.256Z,13.73
2022-11-26T08:02:48.985Z,16.25
2022-11-26T08:05:20.809Z,14.63
2022-11-26T08:07:52.623Z,14.13
2022-11-26T08:10:24.316Z,14.20
2022-11-26T08:12:56.070Z,13.37
2022-11-26T08:15:27.761Z,10.70
2022-11-26T08:17:59.521Z,9.80
2022-11-26T08:20:31.250Z,8.50
2022-11-26T08:23:03.130Z,8.50
2022-11-26T08:25:35.916Z,9.20
2022-11-26T08:28:08.955Z,9.33
2022-11-26T08:30:40.641Z,8.33
2022-11-26T08:33:12.429Z,9.40
2022-11-26T08:36:05.629Z,8.30
2022-11-26T08:38:36.262Z,8.10
2022-11-26T08:41:10.773Z,8.03
2022-11-26T08:44:05.783Z,7.97
2022-11-26T08:46:34.971Z,8.37
2022-11-26T08:49:08.447Z,10.77
2022-11-26T08:51:40.660Z,13.40
2022-11-26T08:54:12.619Z,13.97
2022-11-26T08:56:44.397Z,16.70
2022-11-26T08:59:17.496Z,19.03
2022-11-26T09:01:49.735Z,20.33
2022-11-26T09:04:21.501Z,25.00
2022-11-26T09:06:53.178Z,23.80
2022-11-26T09:09:25.236Z,20.30
2022-11-26T09:11:58.643Z,16.63
2022-11-26T09:14:35.842Z,18.57
2022-11-26T09:17:07.985Z,14.50
2022-11-26T09:19:39.639Z,13.90
2022-11-26T09:22:11.336Z,12.33
2022-11-26T09:24:43.100Z,14.60
2022-11-26T09:27:14.847Z,15.43
2022-11-26T09:29:46.598Z,13.17
2022-11-26T09:32:30.980Z,14.03
2022-11-26T09:35:05.927Z,12.07
2022-11-26T09:37:37.608Z,11.80
2022-11-26T09:40:16.865Z,11.03
2022-11-26T09:43:03.420Z,11.47
2022-11-26T09:45:43.288Z,11.13
2022-11-26T09:48:21.268Z,11.90
2022-11-26T09:51:01.788Z,10.90
2022-11-26T09:53:40.420Z,11.77
2022-11-26T09:56:21.472Z,10.00
2022-11-26T09:59:01.818Z,10.40
2022-11-26T10:01:34.550Z,10.50
2022-11-26T10:04:23.086Z,10.27
2022-11-26T10:07:28.469Z,10.50
2022-11-26T10:10:26.399Z,11.27
2022-11-26T10:13:20.236Z,10.75
2022-11-26T10:16:14.790Z,10.10
2022-11-26T10:18:55.487Z,9.00
2022-11-26T10:21:58.293Z,8.57
2022-11-26T10:24:41.989Z,8.10
2022-11-26T10:27:17.044Z,6.83
2022-11-26T10:29:58.804Z,7.00
2022-11-26T10:32:39.200Z,7.33
2022-11-26T10:35:16.573Z,5.87
2022-11-26T10:37:49.114Z,6.07
2022-11-26T10:40:31.983Z,4.03
2022-11-26T10:43:09.399Z,4.47
2022-11-26T10:45:41.154Z,3.93
2022-11-26T10:48:28.896Z,4.73
2022-11-26T10:51:03.571Z,3.80
2022-11-26T10:53:57.181Z,3.90
2022-11-26T10:56:35.986Z,4.93
2022-11-26T10:59:34.290Z,4.00
2022-11-26T11:02:48.285Z,4.10
2022-11-26T11:05:21.182Z,4.73
2022-11-26T11:07:54.779Z,4.70
2022-11-26T11:10:26.889Z,4.80
2022-11-26T11:13:01.731Z,3.83
2022-11-26T11:15:35.515Z,5.87
2022-11-26T11:18:13.282Z,7.03
2022-11-26T11:20:57.030Z,11.47
2022-11-26T11:24:00.239Z,5.40
2022-11-26T11:26:25.409Z,4.20
2022-11-26T11:28:58.200Z,4.20
2022-11-26T11:31:46.112Z,8.50
2022-11-26T11:34:38.207Z,5.97
2022-11-26T11:37:21.074Z,8.03
2022-11-26T11:40:17.552Z,5.77
2022-11-26T11:42:52.752Z,5.57
2022-11-26T11:45:59.449Z,3.70
2022-11-26T11:48:56.334Z,4.20
2022-11-26T11:52:15.314Z,4.37
2022-11-26T11:54:57.760Z,2.70
2022-11-26T11:58:06.429Z,4.13
2022-11-26T12:01:04.656Z,3.78
2022-11-26T12:04:08.864Z,4.87
2022-11-26T12:07:07.850Z,4.47
2022-11-26T12:10:02.324Z,4.77
2022-11-26T12:12:53.125Z,6.60
2022-11-26T12:15:29.738Z,3.90
2022-11-26T12:18:23.001Z,5.80
2022-11-26T12:21:01.494Z,3.50
2022-11-26T12:23:40.668Z,4.50
2022-11-26T12:26:18.997Z,3.67
2022-11-26T12:29:12.456Z,3.80
2022-11-26T12:31:49.902Z,3.67
2022-11-26T12:34:33.458Z,3.20
2022-11-26T12:37:21.010Z,3.80
2022-11-26T12:40:29.637Z,2.17
2022-11-26T12:43:33.945Z,2.80
2022-11-26T12:46:13.169Z,2.70
2022-11-26T12:49:14.872Z,2.60
2022-11-26T12:52:08.971Z,2.20
2022-11-26T12:55:13.862Z,1.80
2022-11-26T12:58:01.174Z,2.70
2022-11-26T13:00:37.677Z,2.33
2022-11-26T13:03:15.975Z,2.30
2022-11-26T13:05:51.830Z,2.60
2022-11-26T13:08:29.963Z,2.30
2022-11-26T13:11:32.824Z,3.73
2022-11-26T13:14:15.681Z,3.00
2022-11-26T13:16:56.825Z,4.27
2022-11-26T13:19:41.826Z,2.97
2022-11-26T13:22:44.904Z,3.90
2022-11-26T13:25:38.588Z,3.37
2022-11-26T13:28:44.085Z,2.90
2022-11-26T13:31:30.946Z,2.80
2022-11-26T13:34:11.429Z,2.80
2022-11-26T13:36:48.888Z,2.73
2022-11-26T13:39:39.509Z,3.33
2022-11-26T13:42:38.704Z,3.90
2022-11-26T13:45:34.147Z,3.38
2022-11-26T13:48:18.172Z,4.37
2022-11-26T13:50:59.666Z,4.07
2022-11-26T13:53:42.672Z,4.43
2022-11-26T13:56:16.201Z,3.73
2022-11-26T13:59:25.394Z,3.57
2022-11-26T14:02:19.890Z,4.17
2022-11-26T14:04:53.177Z,3.00
2022-11-26T14:07:25.095Z,4.17
2022-11-26T14:10:02.774Z,3.80
2022-11-26T14:13:07.914Z,3.10
2022-11-26T14:15:42.704Z,3.53
2022-11-26T14:18:17.000Z,4.10
2022-11-26T14:20:58.016Z,4.23
2022-11-26T14:23:43.496Z,4.70
2022-11-26T14:26:39.192Z,4.37
2022-11-26T14:29:13.789Z,4.27
2022-11-26T14:31:49.952Z,4.27
2022-11-26T14:34:39.056Z,3.40
2022-11-26T14:37:22.914Z,3.53
2022-11-26T14:39:59.856Z,5.07
2022-11-26T14:42:31.913Z,3.33
2022-11-26T14:45:18.345Z,3.77
2022-11-26T14:47:52.249Z,3.70
2022-11-26T14:50:25.156Z,3.00
2022-11-26T14:53:02.264Z,4.30
2022-11-26T14:55:34.832Z,4.07
2022-11-26T14:58:14.864Z,4.37
2022-11-26T15:01:02.750Z,4.10
2022-11-26T15:03:34.824Z,3.90
2022-11-26T15:06:06.993Z,3.67
2022-11-26T15:08:38.686Z,3.78
2022-11-26T15:11:11.871Z,3.70
2022-11-26T15:13:46.421Z,3.87
2022-11-26T15:16:54.220Z,4.20
2022-11-26T15:19:30.666Z,4.13
2022-11-26T15:22:18.312Z,3.60
2022-11-26T15:24:51.749Z,3.90
2022-11-26T15:27:51.669Z,3.37
2022-11-26T15:30:27.261Z,3.53
2022-11-26T15:33:14.120Z,4.17
2022-11-26T15:35:46.116Z,3.77
2022-11-26T15:38:20.419Z,4.13
2022-11-26T15:41:07.049Z,4.03
2022-11-26T15:43:44.247Z,6.87
2022-11-26T15:46:26.335Z,4.20
2022-11-26T15:49:04.075Z,12.60
2022-11-26T15:52:04.409Z,54.40
2022-11-26T15:57:51.222Z,26.10
2022-11-26T16:00:31.455Z,28.13
2022-11-26T16:03:04.797Z,28.20
2022-11-26T16:05:38.942Z,31.50
2022-11-26T16:08:25.766Z,14.77
2022-11-26T16:11:04.600Z,22.77
2022-11-26T16:13:36.588Z,40.83
2022-11-26T16:16:20.367Z,37.90
2022-11-26T16:18:59.310Z,63.07
2022-11-26T16:21:36.764Z,120.27
2022-11-26T16:24:39.127Z,59.10
2022-11-26T16:27:22.499Z,18.87
2022-11-26T16:29:54.251Z,14.50
2022-11-26T16:32:26.042Z,17.20
2022-11-26T16:34:57.729Z,17.00
2022-11-26T16:37:31.473Z,18.53
2022-11-26T16:40:13.386Z,16.60
2022-11-26T16:42:45.689Z,11.20
2022-11-26T16:45:18.594Z,10.37
2022-11-26T16:47:53.417Z,10.87
2022-11-26T16:50:27.437Z,9.53
2022-11-26T16:52:59.159Z,8.80
2022-11-26T16:55:31.188Z,8.60
2022-11-26T16:58:05.389Z,8.97
2022-11-26T17:00:37.233Z,8.80
2022-11-26T17:03:12.865Z,8.40
2022-11-26T17:05:46.061Z,7.40
2022-11-26T17:08:18.361Z,8.13
2022-11-26T17:10:51.216Z,7.87
2022-11-26T17:13:23.357Z,7.73
2022-11-26T17:15:55.849Z,8.40
2022-11-26T17:18:27.931Z,9.90
2022-11-26T17:20:59.969Z,13.00
2022-11-26T17:23:32.487Z,11.67
2022-11-26T17:26:21.959Z,10.27
2022-11-26T17:28:53.715Z,12.07
2022-11-26T17:31:25.459Z,11.50
2022-11-26T17:33:57.279Z,12.30
2022-11-26T17:36:35.301Z,11.93
2022-11-26T17:39:10.972Z,12.30
2022-11-26T17:41:42.654Z,11.87
2022-11-26T17:44:14.467Z,11.00
2022-11-26T17:47:15.329Z,13.85
2022-11-26T17:49:38.299Z,10.70
2022-11-26T17:52:10.139Z,11.30
2022-11-26T17:54:42.443Z,12.17
2022-11-26T17:57:15.993Z,14.30
2022-11-26T17:59:47.693Z,12.93
2022-11-26T18:02:19.557Z,11.33
2022-11-26T18:04:51.399Z,11.13
2022-11-26T18:07:23.222Z,12.10
2022-11-26T18:09:57.308Z,12.67
2022-11-26T18:12:29.149Z,17.03
2022-11-26T18:15:02.033Z,16.37
2022-11-26T18:17:34.253Z,15.67
2022-11-26T18:20:06.854Z,16.07
2022-11-26T18:22:38.551Z,14.17
2022-11-26T18:25:10.371Z,14.13
2022-11-26T18:27:42.238Z,15.73
2022-11-26T18:30:14.933Z,17.90
2022-11-26T18:32:47.121Z,16.63
2022-11-26T18:35:18.935Z,18.57
2022-11-26T18:37:51.139Z,16.92
2022-11-26T18:40:22.874Z,17.63
2022-11-26T18:42:54.633Z,16.87
2022-11-26T18:45:26.381Z,15.97
2022-11-26T18:47:58.157Z,16.47
2022-11-26T18:50:29.838Z,18.17
2022-11-26T18:53:01.553Z,17.80
2022-11-26T18:55:33.551Z,18.70
2022-11-26T18:58:08.076Z,20.37
2022-11-26T19:00:40.162Z,17.57
2022-11-26T19:03:13.297Z,17.67
2022-11-26T19:05:45.792Z,18.20
2022-11-26T19:08:18.205Z,18.27
2022-11-26T19:10:50.292Z,16.50
2022-11-26T19:13:22.191Z,18.37
2022-11-26T19:15:53.910Z,17.03
2022-11-26T19:18:25.573Z,17.40
2022-11-26T19:20:57.408Z,18.30
2022-11-26T19:23:29.555Z,15.70
2022-11-26T19:26:05.603Z,15.23
2022-11-26T19:28:37.384Z,16.07
2022-11-26T19:31:11.961Z,15.65
2022-11-26T19:33:46.311Z,15.90
2022-11-26T19:36:18.041Z,16.30
2022-11-26T19:38:55.225Z,16.07
2022-11-26T19:41:28.294Z,17.97
2022-11-26T19:44:01.213Z,15.37
2022-11-26T19:46:36.916Z,16.10
2022-11-26T19:49:11.865Z,15.30
2022-11-26T19:51:43.686Z,15.20
2022-11-26T19:54:15.437Z,16.70
2022-11-26T19:56:48.400Z,16.63
2022-11-26T19:59:20.460Z,17.87
2022-11-26T20:01:52.397Z,16.07
2022-11-26T20:04:27.417Z,16.90
2022-11-26T20:06:59.119Z,16.27
2022-11-26T20:09:30.854Z,16.30
2022-11-26T20:12:02.563Z,15.97
2022-11-26T20:14:34.230Z,15.53
2022-11-26T20:17:06.262Z,16.10
2022-11-26T20:19:38.504Z,15.30
2022-11-26T20:22:10.452Z,14.43
2022-11-26T20:24:42.229Z,15.07
2022-11-26T20:27:13.977Z,16.20
2022-11-26T20:29:45.619Z,16.67
2022-11-26T20:32:17.388Z,16.23
2022-11-26T20:34:49.150Z,16.43
2022-11-26T20:37:20.821Z,17.87
2022-11-26T20:39:52.549Z,18.30
2022-11-26T20:42:24.262Z,17.20
2022-11-26T20:44:56.158Z,16.50
2022-11-26T20:47:27.842Z,17.00
2022-11-26T20:49:59.634Z,19.07
2022-11-26T20:52:31.335Z,17.63
2022-11-26T20:55:03.934Z,17.17
2022-11-26T20:57:36.640Z,17.17
2022-11-26T21:00:08.990Z,18.83
2022-11-26T21:02:40.801Z,16.90
2022-11-26T21:05:14.243Z,19.03
2022-11-26T21:07:46.212Z,19.10
2022-11-26T21:10:18.189Z,19.47
2022-11-26T21:12:49.895Z,20.10
2022-11-26T21:15:23.021Z,20.40
2022-11-26T21:17:54.971Z,20.95
2022-11-26T21:20:27.503Z,22.43
2022-11-26T21:23:00.265Z,21.30
2022-11-26T21:25:32.045Z,18.90
2022-11-26T21:28:05.554Z,17.80
2022-11-26T21:30:38.306Z,19.67
2022-11-26T21:33:10.227Z,20.33
2022-11-26T21:35:41.945Z,19.87
2022-11-26T21:38:13.654Z,22.40
2022-11-26T21:40:45.342Z,29.20
2022-11-26T21:43:17.047Z,23.70
2022-11-26T21:45:48.863Z,19.77
2022-11-26T21:48:20.665Z,19.83
2022-11-26T21:50:52.382Z,25.30
2022-11-26T21:53:24.166Z,29.53
2022-11-26T21:55:56.079Z,32.03
2022-11-26T21:58:27.775Z,21.90
2022-11-26T22:00:59.506Z,18.60
2022-11-26T22:03:31.306Z,19.80
2022-11-26T22:06:02.982Z,18.60
2022-11-26T22:08:35.324Z,19.27
2022-11-26T22:11:19.103Z,22.58
2022-11-26T22:13:51.518Z,22.93
2022-11-26T22:16:25.063Z,23.07
2022-11-26T22:18:58.642Z,21.23
2022-11-26T22:21:35.156Z,23.60
2022-11-26T22:24:11.350Z,21.93
2022-11-26T22:26:44.149Z,20.90
2022-11-26T22:29:18.406Z,21.23
2022-11-26T22:31:50.449Z,18.17
2022-11-26T22:34:24.483Z,16.00
2022-11-26T22:36:56.201Z,17.43
2022-11-26T22:39:27.968Z,17.70
2022-11-26T22:41:59.812Z,16.17
2022-11-26T22:44:32.155Z,17.60
2022-11-26T22:47:03.952Z,18.53
2022-11-26T22:49:37.178Z,16.13
2022-11-26T22:52:09.092Z,17.83
2022-11-26T22:54:40.846Z,20.70
2022-11-26T22:57:12.694Z,17.37
2022-11-26T22:59:44.708Z,19.77
2022-11-26T23:02:16.460Z,20.55
2022-11-26T23:04:48.246Z,19.03
2022-11-26T23:07:20.189Z,20.60
2022-11-26T23:09:52.185Z,21.37
2022-11-26T23:12:23.925Z,18.33
2022-11-26T23:14:55.600Z,18.67
2022-11-26T23:17:27.248Z,19.77
2022-11-26T23:19:58.957Z,18.90
2022-11-26T23:22:30.729Z,17.27
2022-11-26T23:25:02.435Z,18.80
2022-11-26T23:27:34.189Z,18.90
2022-11-26T23:30:06.597Z,18.30
2022-11-26T23:32:39.386Z,18.80
2022-11-26T23:35:11.188Z,17.60
2022-11-26T23:37:42.926Z,16.90
2022-11-26T23:40:15.035Z,16.30
2022-11-26T23:42:46.731Z,17.77
2022-11-26T23:45:18.692Z,16.30
2022-11-26T23:47:50.497Z,18.97
2022-11-26T23:50:23.268Z,24.70
2022-11-26T23:52:55.056Z,17.80
2022-11-26T23:55:26.762Z,19.67
2022-11-26T23:57:58.527Z,17.93
